Time;durP1;ratioP1;P1;durP2;ratioP2;P2;SDS_P1;SDS_P2;PMS_P1;PMS_P2;Temp;Humidity;BMP_temperature;BMP_pressure;BME280_temperature;BME280_humidity;BME280_pressure;Samples;Min_cycle;Max_cycle;Signal;HPM_P1;HPM_P2
2023/05/06 00:00:32;;;;;;;;;;;;;;;;;;5009544;28;19920;-82
2023/05/06 00:03:18;;;;;;;;;;;;;;;;;;5007385;28;20040;-81
2023/05/06 00:06:06;;;;;;;;;;;;;;;;;;5004123;28;19944;-81
2023/05/06 00:08:53;;;;;;;;;;;;;;;;;;5006460;28;19940;-81
2023/05/06 00:11:39;;;;;;;;;;;;;;;;;;5009771;28;19921;-81
2023/05/06 00:14:26;;;;;;;;;;;;;;;;;;5004638;28;19921;-82
2023/05/06 00:17:12;;;;;;;;;;;;;;;;;;5005404;28;19921;-81
2023/05/06 00:19:59;;;;;;;;;;;;;;;;;;4988479;28;19946;-82
2023/05/06 00:22:45;;;;;;;;;;;;;;;;;;4989020;28;19930;-82
2023/05/06 00:25:32;;;;;;;;;;;;;;;;;;4979734;28;19925;-82
2023/05/06 00:28:18;;;;;;;;;;;;;;;;;;4989676;28;19937;-81
2023/05/06 00:31:05;;;;;;;;;;;;;;;;;;4985889;28;20400;-82
2023/05/06 00:33:51;;;;;;;;;;;;;;;;;;4970179;28;19922;-81
2023/05/06 00:36:38;;;;;;;;;;;;;;;;;;4968238;28;19918;-82
2023/05/06 00:39:25;;;;;;;;;;;;;;;;;;4982035;28;19928;-82
2023/05/06 00:42:12;;;;;;;;;;;;;;;;;;4966187;28;19929;-82
2023/05/06 00:44:58;;;;;;;;;;;;;;;;;;4987543;28;19914;-82
2023/05/06 00:47:45;;;;;;;;;;;;;;;;;;4989941;28;19944;-81
2023/05/06 00:50:32;;;;;;;;;;;;;;;;;;4979357;28;19928;-81
2023/05/06 00:53:18;;;;;;;;;;;;;;;;;;4970701;28;19919;-82
2023/05/06 00:56:05;;;;;;;;;;;;;;;;;;4981894;28;19918;-82
2023/05/06 00:58:51;;;;;;;;;;;;;;;;;;4970607;28;19928;-81
2023/05/06 01:01:38;;;;;;;;;;;;;;;;;;4983967;28;19936;-82
2023/05/06 01:04:24;;;;;;;;;;;;;;;;;;4985334;28;19913;-82
2023/05/06 01:07:11;;;;;;;;;;;;;;;;;;4975836;28;19924;-82
2023/05/06 01:09:57;;;;;;;;;;;;;;;;;;4974316;28;19925;-81
2023/05/06 01:12:44;;;;;;;;;;;;;;;;;;4957438;28;19965;-84
2023/05/06 01:18:39;;;;;;;;;;;;;;;;;;4957185;28;19959;-82
2023/05/06 01:21:33;;;;;;;;;;;;;;;;;;4974573;28;19918;-82
2023/05/06 01:24:19;;;;;;;;;;;;;;;;;;4992467;28;19921;-83
2023/05/06 01:27:06;;;;;;;;;;;;;;;;;;4982685;28;19922;-82
2023/05/06 01:29:52;;;;;;;;;;;;;;;;;;4967512;28;20292;-83
2023/05/06 01:32:39;;;;;;;;;;;;;;;;;;4972836;28;19930;-83
2023/05/06 01:35:25;;;;;;;;;;;;;;;;;;4972846;28;19918;-83
2023/05/06 01:38:12;;;;;;;;;;;;;;;;;;4964679;28;19931;-83
2023/05/06 01:40:58;;;;;;;;;;;;;;;;;;4963477;28;20385;-83
2023/05/06 01:43:45;;;;;;;;;;;;;;;;;;4983433;28;19928;-83
2023/05/06 01:46:31;;;;;;;;;;;;;;;;;;4972331;28;19941;-82
2023/05/06 01:49:18;;;;;;;;;;;;;;;;;;4987627;28;19924;-82
2023/05/06 01:52:04;;;;;;;;;;;;;;;;;;4982950;28;19914;-83
2023/05/06 01:54:51;;;;;;;;;;;;;;;;;;4985935;28;19922;-82
2023/05/06 01:57:37;;;;;;;;;;;;;;;;;;4982337;28;20353;-83
2023/05/06 02:00:24;;;;;;;;;;;;;;;;;;4979957;28;19919;-82
2023/05/06 02:03:10;;;;;;;;;;;;;;;;;;4977899;28;19929;-82
2023/05/06 02:05:57;;;;;;;;;;;;;;;;;;4978951;28;19991;-83
2023/05/06 02:08:43;;;;;;;;;;;;;;;;;;4983071;28;19924;-83
2023/05/06 02:11:30;;;;;;;;;;;;;;;;;;4989365;28;19921;-83
2023/05/06 02:14:16;;;;;;;;;;;;;;;;;;4973148;28;19922;-83
2023/05/06 02:17:03;;;;;;;;;;;;;;;;;;4983577;28;19983;-83
2023/05/06 02:19:50;;;;;;;;;;;;;;;;;;5004327;28;19929;-81
2023/05/06 02:22:36;;;;;;;;;;;;;;;;;;4996229;28;19948;-83
2023/05/06 02:25:23;;;;;;;;;;;;;;;;;;5000825;28;20400;-81
2023/05/06 02:28:09;;;;;;;;;;;;;;;;;;5005359;28;19931;-82
2023/05/06 02:30:56;;;;;;;;;;;;;;;;;;5003232;28;19924;-81
2023/05/06 02:33:42;;;;;;;;;;;;;;;;;;5003362;28;19924;-82
2023/05/06 02:36:29;;;;;;;;;;;;;;;;;;5009990;28;19940;-82
2023/05/06 02:39:15;;;;;;;;;;;;;;;;;;5009175;28;19917;-82
2023/05/06 02:42:02;;;;;;;;;;;;;;;;;;5007259;28;19928;-82
2023/05/06 02:44:49;;;;;;;;;;;;;;;;;;5002014;28;19960;-81
2023/05/06 02:47:35;;;;;;;;;;;;;;;;;;4996019;28;20157;-82
2023/05/06 02:50:22;;;;;;;;;;;;;;;;;;4993104;28;19921;-82
2023/05/06 02:53:09;;;;;;;;;;;;;;;;;;5001781;28;20546;-81
2023/05/06 02:55:55;;;;;;;;;;;;;;;;;;5001863;28;19914;-81
2023/05/06 02:58:42;;;;;;;;;;;;;;;;;;5005416;28;20458;-81
2023/05/06 03:01:28;;;;;;;;;;;;;;;;;;4991930;28;19918;-82
2023/05/06 03:04:15;;;;;;;;;;;;;;;;;;5003969;28;19932;-81
2023/05/06 03:07:01;;;;;;;;;;;;;;;;;;5001838;28;19952;-82
2023/05/06 03:09:48;;;;;;;;;;;;;;;;;;5001324;28;19920;-81
2023/05/06 03:12:34;;;;;;;;;;;;;;;;;;5000276;28;19925;-81
2023/05/06 03:15:21;;;;;;;;;;;;;;;;;;5007252;28;19924;-82
2023/05/06 03:18:07;;;;;;;;;;;;;;;;;;4997700;28;19917;-81
2023/05/06 03:20:54;;;;;;;;;;;;;;;;;;5006101;28;19926;-81
2023/05/06 03:23:40;;;;;;;;;;;;;;;;;;5003333;28;20153;-81
2023/05/06 03:26:27;;;;;;;;;;;;;;;;;;4995491;28;19922;-82
2023/05/06 03:29:13;;;;;;;;;;;;;;;;;;4979600;28;19921;-81
2023/05/06 03:32:00;;;;;;;;;;;;;;;;;;4985668;28;19925;-82
2023/05/06 03:34:46;;;;;;;;;;;;;;;;;;4978312;28;19922;-81
2023/05/06 03:37:33;;;;;;;;;;;;;;;;;;5003549;28;19925;-82
2023/05/06 03:40:19;;;;;;;;;;;;;;;;;;5003303;28;19918;-81
2023/05/06 03:43:06;;;;;;;;;;;;;;;;;;4999394;28;20034;-83
2023/05/06 03:45:52;;;;;;;;;;;;;;;;;;5003902;28;19925;-82
2023/05/06 03:48:39;;;;;;;;;;;;;;;;;;5006248;28;19924;-82
2023/05/06 03:51:26;;;;;;;;;;;;;;;;;;5003182;28;20005;-81
2023/05/06 03:54:13;;;;;;;;;;;;;;;;;;5006356;28;19924;-82
2023/05/06 03:57:00;;;;;;;;;;;;;;;;;;5007681;28;19925;-81
2023/05/06 03:59:46;;;;;;;;;;;;;;;;;;5008110;28;19928;-81
2023/05/06 04:02:33;;;;;;;;;;;;;;;;;;4999605;28;19956;-81
2023/05/06 04:05:19;;;;;;;;;;;;;;;;;;5006357;28;19922;-80
2023/05/06 04:08:06;;;;;;;;;;;;;;;;;;5003172;28;20395;-80
2023/05/06 04:10:52;;;;;;;;;;;;;;;;;;5001524;28;19924;-80
2023/05/06 04:13:39;;;;;;;;;;;;;;;;;;5009341;28;19928;-80
2023/05/06 04:16:25;;;;;;;;;;;;;;;;;;5004769;28;19918;-80
2023/05/06 04:19:12;;;;;;;;;;;;;;;;;;5006052;28;19933;-80
2023/05/06 04:21:58;;;;;;;;;;;;;;;;;;5003286;28;19914;-81
2023/05/06 04:24:45;;;;;;;;;;;;;;;;;;5010644;28;19947;-80
2023/05/06 04:27:31;;;;;;;;;;;;;;;;;;5000788;28;19922;-81
2023/05/06 04:30:19;;;;;;;;;;;;;;;;;;5000474;28;19959;-80
2023/05/06 04:33:07;;;;;;;;;;;;;;;;;;5000470;28;19925;-80
2023/05/06 04:35:54;;;;;;;;;;;;;;;;;;5005946;28;19928;-80
2023/05/06 04:38:41;;;;;;;;;;;;;;;;;;5007938;28;20034;-83
2023/05/06 04:41:29;;;;;;;;;;;;;;;;;;4982809;28;20373;-82
2023/05/06 04:44:16;;;;;;;;;;;;;;;;;;5004843;28;19932;-83
2023/05/06 04:47:02;;;;;;;;;;;;;;;;;;5010591;28;20351;-82
2023/05/06 04:49:49;;;;;;;;;;;;;;;;;;5002227;28;19922;-81
2023/05/06 04:52:36;;;;;;;;;;;;;;;;;;5004215;28;19921;-82
2023/05/06 04:55:22;;;;;;;;;;;;;;;;;;5007324;28;19938;-82
2023/05/06 04:58:09;;;;;;;;;;;;;;;;;;5011819;28;19932;-82
2023/05/06 05:00:56;;;;;;;;;;;;;;;;;;5004553;28;19922;-82
2023/05/06 05:03:43;;;;;;;;;;;;;;;;;;5004360;28;19929;-82
2023/05/06 05:06:30;;;;;;;;;;;;;;;;;;4995217;28;20487;-82
2023/05/06 05:09:17;;;;;;;;;;;;;;;;;;5001897;28;19921;-82
2023/05/06 05:12:03;;;;;;;;;;;;;;;;;;4993465;28;19925;-81
2023/05/06 05:14:50;;;;;;;;;;;;;;;;;;4998619;28;19925;-82
2023/05/06 05:17:36;;;;;;;;;;;;;;;;;;4997983;28;19944;-84
2023/05/06 05:20:23;;;;;;;;;;;;;;;;;;5000686;28;19932;-82
2023/05/06 05:23:09;;;;;;;;;;;;;;;;;;4995451;28;19933;-83
2023/05/06 05:25:56;;;;;;;;;;;;;;;;;;4990743;28;19917;-81
2023/05/06 05:28:43;;;;;;;;;;;;;;;;;;5006340;28;19928;-82
2023/05/06 05:31:30;;;;;;;;;;;;;;;;;;4993443;28;19925;-83
2023/05/06 05:34:16;;;;;;;;;;;;;;;;;;5000861;28;19932;-83
2023/05/06 05:37:03;;;;;;;;;;;;;;;;;;5003681;28;19921;-82
2023/05/06 05:39:49;;;;;;;;;;;;;;;;;;4996370;28;19931;-82
2023/05/06 05:42:36;;;;;;;;;;;;;;;;;;5002942;28;20001;-81
2023/05/06 05:45:22;;;;;;;;;;;;;;;;;;5011155;28;19926;-80
2023/05/06 05:48:09;;;;;;;;;;;;;;;;;;5010505;28;19921;-83
2023/05/06 05:50:56;;;;;;;;;;;;;;;;;;5005140;28;19924;-81
2023/05/06 05:53:43;;;;;;;;;;;;;;;;;;5001094;28;19919;-80
2023/05/06 05:56:29;;;;;;;;;;;;;;;;;;5003234;28;20281;-82
2023/05/06 05:59:16;;;;;;;;;;;;;;;;;;4996673;28;19925;-78
2023/05/06 06:02:02;;;;;;;;;;;;;;;;;;5001664;28;19956;-78
2023/05/06 06:04:49;;;;;;;;;;;;;;;;;;5004825;28;19929;-78
2023/05/06 06:07:35;;;;;;;;;;;;;;;;;;5003753;28;19917;-80
2023/05/06 06:10:22;;;;;;;;;;;;;;;;;;4999548;28;19926;-80
2023/05/06 06:13:08;;;;;;;;;;;;;;;;;;5004233;28;19921;-79
2023/05/06 06:15:54;;;;;;;;;;;;;;;;;;4995699;28;19928;-78
2023/05/06 06:18:41;;;;;;;;;;;;;;;;;;5003289;28;19922;-80
2023/05/06 06:21:27;;;;;;;;;;;;;;;;;;4991774;28;19929;-81
2023/05/06 06:24:14;;;;;;;;;;;;;;;;;;4997082;28;19934;-81
2023/05/06 06:27:01;;;;;;;;;;;;;;;;;;4990064;28;19933;-80
2023/05/06 06:29:48;;;;;;;;;;;;;;;;;;5006780;28;19926;-80
2023/05/06 06:32:35;;;;;;;;;;;;;;;;;;5005291;28;20403;-84
2023/05/06 06:35:22;;;;;;;;;;;;;;;;;;4996521;28;19922;-85
2023/05/06 06:38:09;;;;;;;;;;;;;;;;;;5000667;28;20312;-85
2023/05/06 06:40:55;;;;;;;;;;;;;;;;;;5003071;28;19921;-84
2023/05/06 06:43:42;;;;;;;;;;;;;;;;;;5005868;28;20325;-85
2023/05/06 06:46:28;;;;;;;;;;;;;;;;;;4995095;28;19921;-85
2023/05/06 06:49:15;;;;;;;;;;;;;;;;;;4996244;28;19929;-84
2023/05/06 06:52:04;;;;;;;;;;;;;;;;;;4993334;28;19928;-83
2023/05/06 06:54:51;;;;;;;;;;;;;;;;;;4993234;28;19928;-83
2023/05/06 06:57:37;;;;;;;;;;;;;;;;;;4992961;28;19921;-83
2023/05/06 07:00:24;;;;;;;;;;;;;;;;;;4994626;28;25114;-84
2023/05/06 07:03:14;;;;;;;;;;;;;;;;;;5004752;28;20392;-84
2023/05/06 07:06:00;;;;;;;;;;;;;;;;;;4994921;28;19921;-83
2023/05/06 07:08:47;;;;;;;;;;;;;;;;;;5000492;28;19944;-83
2023/05/06 07:11:33;;;;;;;;;;;;;;;;;;5011011;28;19969;-84
2023/05/06 07:14:20;;;;;;;;;;;;;;;;;;4994486;28;19927;-85
2023/05/06 07:17:07;;;;;;;;;;;;;;;;;;4998114;28;20484;-83
2023/05/06 07:19:53;;;;;;;;;;;;;;;;;;5002162;28;19936;-87
2023/05/06 07:22:40;;;;;;;;;;;;;;;;;;5005407;28;20292;-87
2023/05/06 07:25:26;;;;;;;;;;;;;;;;;;5008213;28;19924;-87
2023/05/06 07:28:13;;;;;;;;;;;;;;;;;;4996059;28;19922;-88
2023/05/06 07:30:59;;;;;;;;;;;;;;;;;;5010015;28;19917;-88
2023/05/06 07:33:46;;;;;;;;;;;;;;;;;;5008103;28;20456;-88
2023/05/06 07:36:39;;;;;;;;;;;;;;;;;;5001572;28;20329;-87
2023/05/06 07:39:25;;;;;;;;;;;;;;;;;;4989205;28;19917;-87
2023/05/06 07:42:12;;;;;;;;;;;;;;;;;;5007118;28;19928;-87
2023/05/06 07:44:58;;;;;;;;;;;;;;;;;;5005581;28;20370;-87
2023/05/06 07:47:47;;;;;;;;;;;;;;;;;;5008359;28;19914;-88
2023/05/06 07:50:34;;;;;;;;;;;;;;;;;;5005518;28;19932;-87
2023/05/06 07:53:20;;;;;;;;;;;;;;;;;;4973914;28;19917;-85
2023/05/06 07:56:07;;;;;;;;;;;;;;;;;;4997117;28;19922;-84
2023/05/06 07:58:54;;;;;;;;;;;;;;;;;;4978485;28;19922;-88
2023/05/06 08:01:40;;;;;;;;;;;;;;;;;;4987682;28;19924;-89
2023/05/06 08:04:26;;;;;;;;;;;;;;;;;;4985382;28;19922;-87
2023/05/06 08:07:14;;;;;;;;;;;;;;;;;;4983956;28;19929;-87
2023/05/06 08:10:01;;;;;;;;;;;;;;;;;;4976455;28;19925;-89
2023/05/06 08:12:48;;;;;;;;;;;;;;;;;;4967081;28;19929;-89
2023/05/06 08:15:35;;;;;;;;;;;;;;;;;;4990739;28;19932;-88
2023/05/06 08:18:21;;;;;;;;;;;;;;;;;;5001521;28;19922;-87
2023/05/06 08:21:08;;;;;;;;;;;;;;;;;;5004213;28;19932;-89
2023/05/06 08:23:54;;;;;;;;;;;;;;;;;;5001843;28;19937;-89
2023/05/06 08:26:41;;;;;;;;;;;;;;;;;;5005544;28;20328;-89
2023/05/06 08:29:27;;;;;;;;;;;;;;;;;;5000992;28;19922;-90
2023/05/06 08:32:14;;;;;;;;;;;;;;;;;;5004354;28;20361;-89
2023/05/06 08:35:00;;;;;;;;;;;;;;;;;;5005669;28;19917;-91
2023/05/06 08:37:47;;;;;;;;;;;;;;;;;;5007215;28;19949;-89
2023/05/06 08:40:33;;;;;;;;;;;;;;;;;;5004198;28;20404;-90
2023/05/06 08:43:20;;;;;;;;;;;;;;;;;;5006913;28;19932;-87
2023/05/06 08:46:06;;;;;;;;;;;;;;;;;;5002550;28;19959;-88
2023/05/06 08:48:53;;;;;;;;;;;;;;;;;;5010203;28;19933;-88
2023/05/06 08:51:39;;;;;;;;;;;;;;;;;;5003361;28;19944;-86
2023/05/06 08:54:26;;;;;;;;;;;;;;;;;;5002544;28;19928;-88
2023/05/06 08:57:12;;;;;;;;;;;;;;;;;;5003714;28;19913;-87
2023/05/06 08:59:59;;;;;;;;;;;;;;;;;;4999523;28;20450;-88
2023/05/06 09:02:45;;;;;;;;;;;;;;;;;;5004714;28;19932;-88
2023/05/06 09:05:32;;;;;;;;;;;;;;;;;;5007453;28;20270;-85
2023/05/06 09:08:18;;;;;;;;;;;;;;;;;;5002267;28;19932;-85
2023/05/06 09:11:05;;;;;;;;;;;;;;;;;;5007182;28;19944;-86
2023/05/06 09:13:51;;;;;;;;;;;;;;;;;;5007930;28;21481;-85
2023/05/06 09:16:38;;;;;;;;;;;;;;;;;;4995086;28;19918;-87
2023/05/06 09:19:25;;;;;;;;;;;;;;;;;;5014483;28;19930;-86
2023/05/06 09:22:11;;;;;;;;;;;;;;;;;;4998403;28;20233;-86
2023/05/06 09:24:58;;;;;;;;;;;;;;;;;;5002368;28;20587;-87
2023/05/06 09:27:44;;;;;;;;;;;;;;;;;;4989054;28;19925;-85
2023/05/06 09:30:31;;;;;;;;;;;;;;;;;;5003782;28;19921;-87
2023/05/06 09:33:17;;;;;;;;;;;;;;;;;;5002840;28;19917;-84
2023/05/06 09:36:04;;;;;;;;;;;;;;;;;;5009706;28;19928;-84
2023/05/06 09:38:52;;;;;;;;;;;;;;;;;;4996274;28;19928;-82
2023/05/06 09:41:39;;;;;;;;;;;;;;;;;;4998822;28;20569;-84
2023/05/06 09:44:25;;;;;;;;;;;;;;;;;;5010764;28;19930;-83
2023/05/06 09:47:12;;;;;;;;;;;;;;;;;;4985784;28;20685;-86
2023/05/06 09:49:58;;;;;;;;;;;;;;;;;;4998456;28;19936;-86
2023/05/06 09:52:45;;;;;;;;;;;;;;;;;;5006489;28;19945;-85
2023/05/06 09:55:31;;;;;;;;;;;;;;;;;;4976031;28;19944;-85
2023/05/06 09:58:19;;;;;;;;;;;;;;;;;;5003561;28;19918;-87
2023/05/06 10:01:05;;;;;;;;;;;;;;;;;;5010834;28;20590;-86
2023/05/06 10:03:52;;;;;;;;;;;;;;;;;;5008834;28;19925;-88
2023/05/06 10:06:38;;;;;;;;;;;;;;;;;;5003971;28;19918;-89
2023/05/06 10:09:25;;;;;;;;;;;;;;;;;;4998987;28;20396;-87
2023/05/06 10:12:12;;;;;;;;;;;;;;;;;;5001944;28;19929;-88
2023/05/06 10:14:58;;;;;;;;;;;;;;;;;;5015470;28;20405;-85
2023/05/06 10:17:47;;;;;;;;;;;;;;;;;;5002259;28;19940;-80
2023/05/06 10:20:34;;;;;;;;;;;;;;;;;;4990019;28;19930;-85
2023/05/06 10:23:20;;;;;;;;;;;;;;;;;;4983706;28;19937;-85
2023/05/06 10:26:07;;;;;;;;;;;;;;;;;;4990443;28;19921;-84
2023/05/06 10:28:53;;;;;;;;;;;;;;;;;;4981070;28;19922;-83
2023/05/06 10:31:40;;;;;;;;;;;;;;;;;;4988564;28;20302;-83
2023/05/06 10:34:26;;;;;;;;;;;;;;;;;;4988008;28;19918;-85
2023/05/06 10:37:13;;;;;;;;;;;;;;;;;;4976075;28;19928;-85
2023/05/06 10:40:03;;;;;;;;;;;;;;;;;;4983998;28;19958;-85
2023/05/06 10:42:50;;;;;;;;;;;;;;;;;;4994456;28;19929;-85
2023/05/06 10:45:36;;;;;;;;;;;;;;;;;;4964147;28;19932;-85
2023/05/06 10:48:23;;;;;;;;;;;;;;;;;;4975916;28;19921;-84
2023/05/06 10:51:09;;;;;;;;;;;;;;;;;;4993433;28;19918;-84
2023/05/06 10:53:57;;;;;;;;;;;;;;;;;;4983328;28;19918;-84
2023/05/06 10:56:43;;;;;;;;;;;;;;;;;;4981166;28;19921;-83
2023/05/06 10:59:30;;;;;;;;;;;;;;;;;;4956864;28;20235;-84
2023/05/06 11:02:17;;;;;;;;;;;;;;;;;;4982215;28;19924;-84
2023/05/06 11:05:04;;;;;;;;;;;;;;;;;;4974082;28;20282;-84
2023/05/06 11:07:51;;;;;;;;;;;;;;;;;;4988581;28;20416;-84
2023/05/06 11:10:38;;;;;;;;;;;;;;;;;;4980474;28;19929;-84
2023/05/06 11:13:25;;;;;;;;;;;;;;;;;;4990695;28;20435;-85
2023/05/06 11:16:12;;;;;;;;;;;;;;;;;;4987169;28;19925;-85
2023/05/06 11:18:58;;;;;;;;;;;;;;;;;;4989325;28;19968;-84
2023/05/06 11:21:45;;;;;;;;;;;;;;;;;;5002178;28;19984;-81
2023/05/06 11:24:31;;;;;;;;;;;;;;;;;;5001671;28;19929;-82
2023/05/06 11:27:20;;;;;;;;;;;;;;;;;;4992234;28;19922;-83
2023/05/06 11:30:06;;;;;;;;;;;;;;;;;;4976306;28;19929;-82
2023/05/06 11:32:53;;;;;;;;;;;;;;;;;;4986332;28;19968;-83
2023/05/06 11:35:39;;;;;;;;;;;;;;;;;;4999412;28;19921;-83
2023/05/06 11:38:26;;;;;;;;;;;;;;;;;;4996484;28;19917;-81
2023/05/06 11:41:12;;;;;;;;;;;;;;;;;;4994969;28;19970;-81
2023/05/06 11:43:59;;;;;;;;;;;;;;;;;;5002666;28;19929;-83
2023/05/06 11:46:45;;;;;;;;;;;;;;;;;;4997438;28;19921;-81
2023/05/06 11:49:32;;;;;;;;;;;;;;;;;;4993086;28;19918;-81
2023/05/06 11:52:19;;;;;;;;;;;;;;;;;;4977580;28;19922;-81
2023/05/06 11:55:06;;;;;;;;;;;;;;;;;;5005991;28;20293;-82
2023/05/06 11:57:52;;;;;;;;;;;;;;;;;;5006260;28;19922;-82
2023/05/06 12:00:38;;;;;;;;;;;;;;;;;;4993042;28;20437;-82
2023/05/06 12:03:25;;;;;;;;;;;;;;;;;;4995854;28;19926;-81
2023/05/06 12:06:11;;;;;;;;;;;;;;;;;;5004791;28;19921;-82
2023/05/06 12:08:58;;;;;;;;;;;;;;;;;;5007527;28;19913;-80
2023/05/06 12:11:45;;;;;;;;;;;;;;;;;;5000639;28;20528;-81
2023/05/06 12:14:31;;;;;;;;;;;;;;;;;;5007813;28;19917;-80
2023/05/06 12:17:17;;;;;;;;;;;;;;;;;;4996115;28;20444;-81
2023/05/06 12:20:04;;;;;;;;;;;;;;;;;;5008479;28;19929;-80
2023/05/06 12:22:50;;;;;;;;;;;;;;;;;;4997964;28;19948;-79
2023/05/06 12:25:37;;;;;;;;;;;;;;;;;;4988911;28;19922;-81
2023/05/06 12:28:25;;;;;;;;;;;;;;;;;;4988856;28;19918;-82
2023/05/06 12:31:12;;;;;;;;;;;;;;;;;;4989191;28;19927;-81
2023/05/06 12:33:58;;;;;;;;;;;;;;;;;;5004918;28;19928;-81
2023/05/06 12:36:45;;;;;;;;;;;;;;;;;;4999069;28;19925;-80
2023/05/06 12:39:31;;;;;;;;;;;;;;;;;;4993287;28;19917;-81
2023/05/06 12:42:18;;;;;;;;;;;;;;;;;;5002776;28;19918;-81
2023/05/06 12:45:04;;;;;;;;;;;;;;;;;;5006601;28;19929;-83
2023/05/06 12:47:50;;;;;;;;;;;;;;;;;;5002705;28;20000;-81
2023/05/06 12:50:37;;;;;;;;;;;;;;;;;;4996185;28;19922;-81
2023/05/06 12:53:24;;;;;;;;;;;;;;;;;;4995870;28;19937;-82
2023/05/06 12:56:10;;;;;;;;;;;;;;;;;;4985739;28;20401;-82
2023/05/06 12:58:57;;;;;;;;;;;;;;;;;;4984508;28;19918;-81
2023/05/06 13:01:43;;;;;;;;;;;;;;;;;;4987262;28;19926;-81
2023/05/06 13:04:30;;;;;;;;;;;;;;;;;;4988806;28;19929;-81
2023/05/06 13:07:16;;;;;;;;;;;;;;;;;;4995882;28;19940;-82
2023/05/06 13:10:04;;;;;;;;;;;;;;;;;;5000319;28;19914;-84
2023/05/06 13:12:51;;;;;;;;;;;;;;;;;;5002790;28;19928;-85
2023/05/06 13:15:38;;;;;;;;;;;;;;;;;;4983150;28;19926;-85
2023/05/06 13:18:24;;;;;;;;;;;;;;;;;;4998886;28;19922;-85
2023/05/06 13:21:12;;;;;;;;;;;;;;;;;;5006387;28;19936;-83
2023/05/06 13:23:59;;;;;;;;;;;;;;;;;;5002624;28;19929;-84
2023/05/06 13:26:45;;;;;;;;;;;;;;;;;;4997096;28;19941;-84
2023/05/06 13:29:32;;;;;;;;;;;;;;;;;;4998749;28;19921;-85
2023/05/06 13:32:18;;;;;;;;;;;;;;;;;;5013092;28;19928;-86
2023/05/06 13:35:06;;;;;;;;;;;;;;;;;;4994501;28;20415;-82
2023/05/06 13:37:52;;;;;;;;;;;;;;;;;;4992597;28;19922;-81
2023/05/06 13:40:39;;;;;;;;;;;;;;;;;;4998840;28;19940;-82
2023/05/06 13:43:25;;;;;;;;;;;;;;;;;;5000846;28;19922;-82
2023/05/06 13:46:11;;;;;;;;;;;;;;;;;;4997558;28;19918;-82
2023/05/06 13:48:58;;;;;;;;;;;;;;;;;;5004617;28;20479;-82
2023/05/06 13:51:45;;;;;;;;;;;;;;;;;;5001492;28;19929;-81
2023/05/06 13:54:31;;;;;;;;;;;;;;;;;;4991154;28;19967;-82
2023/05/06 13:57:18;;;;;;;;;;;;;;;;;;4996394;28;19922;-83
2023/05/06 14:00:06;;;;;;;;;;;;;;;;;;5007781;28;19952;-83
2023/05/06 14:02:52;;;;;;;;;;;;;;;;;;4996910;28;19927;-83
2023/05/06 14:05:39;;;;;;;;;;;;;;;;;;5001768;28;19925;-83
2023/05/06 14:08:25;;;;;;;;;;;;;;;;;;4996678;28;19921;-82
2023/05/06 14:11:12;;;;;;;;;;;;;;;;;;4984510;28;20690;-81
2023/05/06 14:13:59;;;;;;;;;;;;;;;;;;4985692;28;19918;-80
2023/05/06 14:16:45;;;;;;;;;;;;;;;;;;4994314;28;19924;-80
2023/05/06 14:19:32;;;;;;;;;;;;;;;;;;4991676;28;19925;-81
2023/05/06 14:22:18;;;;;;;;;;;;;;;;;;4992578;28;19919;-80
2023/05/06 14:25:05;;;;;;;;;;;;;;;;;;4979565;28;19934;-80
2023/05/06 14:27:51;;;;;;;;;;;;;;;;;;4994431;28;19918;-80
2023/05/06 14:30:38;;;;;;;;;;;;;;;;;;4992538;28;20352;-78
2023/05/06 14:33:24;;;;;;;;;;;;;;;;;;5003806;28;19964;-80
2023/05/06 14:36:11;;;;;;;;;;;;;;;;;;4993255;28;19929;-79
2023/05/06 14:38:57;;;;;;;;;;;;;;;;;;4992487;28;19921;-80
2023/05/06 14:41:44;;;;;;;;;;;;;;;;;;5000269;28;19917;-81
2023/05/06 14:44:30;;;;;;;;;;;;;;;;;;4986343;28;20369;-80
2023/05/06 14:47:17;;;;;;;;;;;;;;;;;;4985059;28;19929;-85
2023/05/06 14:50:03;;;;;;;;;;;;;;;;;;4975329;28;19925;-88
2023/05/06 14:52:49;;;;;;;;;;;;;;;;;;4995999;28;20308;-81
2023/05/06 14:55:36;;;;;;;;;;;;;;;;;;4984438;28;20381;-81
2023/05/06 14:58:23;;;;;;;;;;;;;;;;;;4966731;28;19921;-80
2023/05/06 15:01:09;;;;;;;;;;;;;;;;;;4976899;28;19943;-80
2023/05/06 15:03:56;;;;;;;;;;;;;;;;;;4978245;28;19926;-81
2023/05/06 15:06:42;;;;;;;;;;;;;;;;;;4975845;28;19922;-80
2023/05/06 15:09:29;;;;;;;;;;;;;;;;;;4981714;28;19922;-80
2023/05/06 15:12:15;;;;;;;;;;;;;;;;;;4996946;28;19928;-82
2023/05/06 15:15:03;;;;;;;;;;;;;;;;;;5001583;28;19921;-81
2023/05/06 15:17:51;;;;;;;;;;;;;;;;;;4990693;28;19922;-81
2023/05/06 15:20:37;;;;;;;;;;;;;;;;;;4998765;28;19952;-81
2023/05/06 15:23:24;;;;;;;;;;;;;;;;;;5006261;28;20563;-81
2023/05/06 15:26:10;;;;;;;;;;;;;;;;;;5002073;28;19933;-82
2023/05/06 15:28:57;;;;;;;;;;;;;;;;;;4995162;28;19924;-81
2023/05/06 15:31:43;;;;;;;;;;;;;;;;;;5005901;28;19918;-81
2023/05/06 15:34:29;;;;;;;;;;;;;;;;;;4996684;28;19944;-81
2023/05/06 15:37:18;;;;;;;;;;;;;;;;;;5004985;28;19928;-82
2023/05/06 15:40:04;;;;;;;;;;;;;;;;;;5005191;28;19921;-81
2023/05/06 15:42:51;;;;;;;;;;;;;;;;;;5001136;28;19921;-80
2023/05/06 15:45:37;;;;;;;;;;;;;;;;;;4996809;28;19937;-81
2023/05/06 15:48:24;;;;;;;;;;;;;;;;;;5000868;28;20551;-81
2023/05/06 15:51:10;;;;;;;;;;;;;;;;;;4995543;28;20321;-80
2023/05/06 15:53:57;;;;;;;;;;;;;;;;;;4997124;28;19921;-79
2023/05/06 15:56:43;;;;;;;;;;;;;;;;;;5001551;28;19922;-80
2023/05/06 15:59:30;;;;;;;;;;;;;;;;;;5006521;28;19917;-81
2023/05/06 16:02:16;;;;;;;;;;;;;;;;;;4998097;28;19921;-80
2023/05/06 16:05:04;;;;;;;;;;;;;;;;;;5007305;28;19925;-80
2023/05/06 16:07:50;;;;;;;;;;;;;;;;;;5002768;28;19921;-80
2023/05/06 16:10:37;;;;;;;;;;;;;;;;;;4992330;28;19921;-82
2023/05/06 16:13:23;;;;;;;;;;;;;;;;;;5004599;28;19925;-82
2023/05/06 16:16:10;;;;;;;;;;;;;;;;;;4999690;28;20388;-82
2023/05/06 16:18:57;;;;;;;;;;;;;;;;;;5004007;28;19930;-81
2023/05/06 16:21:43;;;;;;;;;;;;;;;;;;5007734;28;19917;-82
2023/05/06 16:24:30;;;;;;;;;;;;;;;;;;5002905;28;19929;-81
2023/05/06 16:27:16;;;;;;;;;;;;;;;;;;5003392;28;19922;-82
2023/05/06 16:30:03;;;;;;;;;;;;;;;;;;5002629;28;19914;-81
2023/05/06 16:32:49;;;;;;;;;;;;;;;;;;5000650;28;19920;-81
2023/05/06 16:35:36;;;;;;;;;;;;;;;;;;5005924;28;20396;-82
2023/05/06 16:38:23;;;;;;;;;;;;;;;;;;4990053;28;19929;-82
2023/05/06 16:41:10;;;;;;;;;;;;;;;;;;4995879;28;20018;-81
2023/05/06 16:43:56;;;;;;;;;;;;;;;;;;5002555;28;19926;-81
2023/05/06 16:46:43;;;;;;;;;;;;;;;;;;5002800;28;19917;-82
2023/05/06 16:49:29;;;;;;;;;;;;;;;;;;4993877;28;19928;-82
2023/05/06 16:52:16;;;;;;;;;;;;;;;;;;4989404;28;20366;-82
2023/05/06 16:55:03;;;;;;;;;;;;;;;;;;4994033;28;19921;-82
2023/05/06 16:57:49;;;;;;;;;;;;;;;;;;5006737;28;20017;-81
2023/05/06 17:00:36;;;;;;;;;;;;;;;;;;4994433;28;19918;-82
2023/05/06 17:03:22;;;;;;;;;;;;;;;;;;4993157;28;19928;-81
2023/05/06 17:06:09;;;;;;;;;;;;;;;;;;5005962;28;20565;-82
2023/05/06 17:08:56;;;;;;;;;;;;;;;;;;5004139;28;20598;-80
2023/05/06 17:11:43;;;;;;;;;;;;;;;;;;4996697;28;19918;-79
2023/05/06 17:14:30;;;;;;;;;;;;;;;;;;5005200;28;19924;-82
2023/05/06 17:17:16;;;;;;;;;;;;;;;;;;4987294;28;19925;-82
2023/05/06 17:20:04;;;;;;;;;;;;;;;;;;4986885;28;19933;-82
2023/05/06 17:22:50;;;;;;;;;;;;;;;;;;5004950;28;20411;-79
2023/05/06 17:25:37;;;;;;;;;;;;;;;;;;4987889;28;19926;-80
2023/05/06 17:28:23;;;;;;;;;;;;;;;;;;4984824;28;20557;-81
2023/05/06 17:31:10;;;;;;;;;;;;;;;;;;4974110;28;19918;-82
2023/05/06 17:33:56;;;;;;;;;;;;;;;;;;4977290;28;19913;-81
2023/05/06 17:36:43;;;;;;;;;;;;;;;;;;4978121;28;19917;-81
2023/05/06 17:39:31;;;;;;;;;;;;;;;;;;4979007;28;20028;-83
2023/05/06 17:42:18;;;;;;;;;;;;;;;;;;5004447;28;19925;-81
2023/05/06 17:45:04;;;;;;;;;;;;;;;;;;5004884;28;19930;-81
2023/05/06 17:47:51;;;;;;;;;;;;;;;;;;5002341;28;19917;-80
2023/05/06 17:50:37;;;;;;;;;;;;;;;;;;5001429;28;20244;-83
2023/05/06 17:53:24;;;;;;;;;;;;;;;;;;5010096;28;19925;-81
2023/05/06 17:56:10;;;;;;;;;;;;;;;;;;4999950;28;19932;-79
2023/05/06 17:59:01;;;;;;;;;;;;;;;;;;5004650;28;19928;-81
2023/05/06 18:01:47;;;;;;;;;;;;;;;;;;5003305;28;20420;-79
2023/05/06 18:04:34;;;;;;;;;;;;;;;;;;4979266;28;20188;-78
2023/05/06 18:07:20;;;;;;;;;;;;;;;;;;5000365;28;20023;-74
2023/05/06 18:10:07;;;;;;;;;;;;;;;;;;4982393;28;19914;-74
2023/05/06 18:12:54;;;;;;;;;;;;;;;;;;4993637;28;20308;-74
2023/05/06 18:15:40;;;;;;;;;;;;;;;;;;5002262;28;19922;-74
2023/05/06 18:18:27;;;;;;;;;;;;;;;;;;4986694;28;19925;-74
2023/05/06 18:21:13;;;;;;;;;;;;;;;;;;4985244;28;20510;-74
2023/05/06 18:24:00;;;;;;;;;;;;;;;;;;4984153;28;19937;-75
2023/05/06 18:26:46;;;;;;;;;;;;;;;;;;4979281;28;19918;-74
2023/05/06 18:29:33;;;;;;;;;;;;;;;;;;5002522;28;19918;-75
2023/05/06 18:32:20;;;;;;;;;;;;;;;;;;5004539;28;19917;-74
2023/05/06 18:35:06;;;;;;;;;;;;;;;;;;5005612;28;19984;-75
